sensor_id;sensor_type;location;lat;lon;timestamp;temperature;humidity
26655;DHT22;14278;50.784;4.630;2023-07-29T00:00:49;21.30;99.90
26655;DHT22;14278;50.784;4.630;2023-07-29T00:03:15;21.40;99.90
26655;DHT22;14278;50.784;4.630;2023-07-29T00:05:41;21.50;99.90
26655;DHT22;14278;50.784;4.630;2023-07-29T00:08:07;21.50;99.90
26655;DHT22;14278;50.784;4.630;2023-07-29T00:10:36;21.60;99.90
26655;DHT22;14278;50.784;4.630;2023-07-29T00:13:03;21.20;99.90
26655;DHT22;14278;50.784;4.630;2023-07-29T00:15:30;20.90;99.90
26655;DHT22;14278;50.784;4.630;2023-07-29T00:17:55;20.80;99.90
26655;DHT22;14278;50.784;4.630;2023-07-29T00:20:22;21.00;99.90
26655;DHT22;14278;50.784;4.630;2023-07-29T00:22:47;21.10;99.90
26655;DHT22;14278;50.784;4.630;2023-07-29T00:25:16;21.30;99.90
26655;DHT22;14278;50.784;4.630;2023-07-29T00:27:42;21.40;99.90
26655;DHT22;14278;50.784;4.630;2023-07-29T00:30:08;21.50;99.90
26655;DHT22;14278;50.784;4.630;2023-07-29T00:32:35;21.50;99.90
26655;DHT22;14278;50.784;4.630;2023-07-29T00:35:01;21.30;99.90
26655;DHT22;14278;50.784;4.630;2023-07-29T00:37:28;21.30;99.90
26655;DHT22;14278;50.784;4.630;2023-07-29T00:39:54;21.10;99.90
26655;DHT22;14278;50.784;4.630;2023-07-29T00:42:20;21.10;99.90
26655;DHT22;14278;50.784;4.630;2023-07-29T00:44:46;20.90;99.90
26655;DHT22;14278;50.784;4.630;2023-07-29T00:47:12;20.90;99.90
26655;DHT22;14278;50.784;4.630;2023-07-29T00:49:40;20.40;99.90
26655;DHT22;14278;50.784;4.630;2023-07-29T00:52:06;20.30;99.90
26655;DHT22;14278;50.784;4.630;2023-07-29T00:54:32;20.10;99.90
26655;DHT22;14278;50.784;4.630;2023-07-29T00:56:58;20.20;99.90
26655;DHT22;14278;50.784;4.630;2023-07-29T00:59:25;20.00;99.90
26655;DHT22;14278;50.784;4.630;2023-07-29T01:01:51;20.10;99.90
26655;DHT22;14278;50.784;4.630;2023-07-29T01:04:17;20.00;99.90
26655;DHT22;14278;50.784;4.630;2023-07-29T01:09:30;19.90;99.90
26655;DHT22;14278;50.784;4.630;2023-07-29T01:12:14;19.80;99.90
26655;DHT22;14278;50.784;4.630;2023-07-29T01:14:55;20.00;99.90
26655;DHT22;14278;50.784;4.630;2023-07-29T01:17:32;19.90;99.90
26655;DHT22;14278;50.784;4.630;2023-07-29T01:20:08;19.90;99.90
26655;DHT22;14278;50.784;4.630;2023-07-29T01:22:37;19.90;99.90
26655;DHT22;14278;50.784;4.630;2023-07-29T01:25:05;19.90;99.90
26655;DHT22;14278;50.784;4.630;2023-07-29T01:27:31;20.00;99.90
26655;DHT22;14278;50.784;4.630;2023-07-29T01:29:58;20.00;99.90
26655;DHT22;14278;50.784;4.630;2023-07-29T01:35:24;19.50;99.90
26655;DHT22;14278;50.784;4.630;2023-07-29T01:38:24;19.70;99.90
26655;DHT22;14278;50.784;4.630;2023-07-29T01:40:54;20.00;99.90
26655;DHT22;14278;50.784;4.630;2023-07-29T01:43:22;20.00;99.90
26655;DHT22;14278;50.784;4.630;2023-07-29T01:45:50;19.90;99.90
26655;DHT22;14278;50.784;4.630;2023-07-29T01:48:17;19.90;99.90
26655;DHT22;14278;50.784;4.630;2023-07-29T01:50:43;19.90;99.90
26655;DHT22;14278;50.784;4.630;2023-07-29T01:53:08;19.80;99.90
26655;DHT22;14278;50.784;4.630;2023-07-29T01:55:35;19.70;99.90
26655;DHT22;14278;50.784;4.630;2023-07-29T01:58:00;19.70;99.90
26655;DHT22;14278;50.784;4.630;2023-07-29T02:00:27;19.70;99.90
26655;DHT22;14278;50.784;4.630;2023-07-29T02:02:52;19.70;99.90
26655;DHT22;14278;50.784;4.630;2023-07-29T02:05:18;19.70;99.90
26655;DHT22;14278;50.784;4.630;2023-07-29T02:07:44;19.50;99.90
26655;DHT22;14278;50.784;4.630;2023-07-29T02:10:10;19.60;99.90
26655;DHT22;14278;50.784;4.630;2023-07-29T02:12:36;19.50;99.90
26655;DHT22;14278;50.784;4.630;2023-07-29T02:15:03;19.60;99.90
26655;DHT22;14278;50.784;4.630;2023-07-29T02:17:29;19.70;99.90
26655;DHT22;14278;50.784;4.630;2023-07-29T02:19:55;19.70;99.90
26655;DHT22;14278;50.784;4.630;2023-07-29T02:22:20;19.70;99.90
26655;DHT22;14278;50.784;4.630;2023-07-29T02:24:47;19.70;99.90
26655;DHT22;14278;50.784;4.630;2023-07-29T02:27:13;19.60;99.90
26655;DHT22;14278;50.784;4.630;2023-07-29T02:29:38;19.50;99.90
26655;DHT22;14278;50.784;4.630;2023-07-29T02:32:05;19.50;99.90
26655;DHT22;14278;50.784;4.630;2023-07-29T02:34:31;19.60;99.90
26655;DHT22;14278;50.784;4.630;2023-07-29T02:36:57;19.60;99.90
26655;DHT22;14278;50.784;4.630;2023-07-29T02:39:23;19.80;99.90
26655;DHT22;14278;50.784;4.630;2023-07-29T02:41:49;19.70;99.90
26655;DHT22;14278;50.784;4.630;2023-07-29T02:44:15;19.40;99.90
26655;DHT22;14278;50.784;4.630;2023-07-29T02:46:41;19.40;99.90
26655;DHT22;14278;50.784;4.630;2023-07-29T02:49:07;19.10;99.90
26655;DHT22;14278;50.784;4.630;2023-07-29T02:51:33;19.30;99.90
26655;DHT22;14278;50.784;4.630;2023-07-29T02:53:59;19.50;99.90
26655;DHT22;14278;50.784;4.630;2023-07-29T02:56:25;19.80;99.90
26655;DHT22;14278;50.784;4.630;2023-07-29T02:58:51;19.50;99.90
26655;DHT22;14278;50.784;4.630;2023-07-29T03:01:17;19.40;99.90
26655;DHT22;14278;50.784;4.630;2023-07-29T03:03:44;19.20;99.90
26655;DHT22;14278;50.784;4.630;2023-07-29T03:06:11;19.20;99.90
26655;DHT22;14278;50.784;4.630;2023-07-29T03:08:37;19.30;99.90
26655;DHT22;14278;50.784;4.630;2023-07-29T03:11:11;19.30;99.90
26655;DHT22;14278;50.784;4.630;2023-07-29T03:13:38;19.40;99.90
26655;DHT22;14278;50.784;4.630;2023-07-29T03:16:11;19.30;99.90
26655;DHT22;14278;50.784;4.630;2023-07-29T03:18:37;19.20;99.90
26655;DHT22;14278;50.784;4.630;2023-07-29T03:21:04;19.40;99.90
26655;DHT22;14278;50.784;4.630;2023-07-29T03:23:30;19.40;99.90
26655;DHT22;14278;50.784;4.630;2023-07-29T03:25:58;19.40;99.90
26655;DHT22;14278;50.784;4.630;2023-07-29T03:28:28;19.20;99.90
26655;DHT22;14278;50.784;4.630;2023-07-29T03:30:55;18.90;99.90
26655;DHT22;14278;50.784;4.630;2023-07-29T03:33:22;18.70;99.90
26655;DHT22;14278;50.784;4.630;2023-07-29T03:35:48;18.90;99.90
26655;DHT22;14278;50.784;4.630;2023-07-29T03:38:14;19.10;99.90
26655;DHT22;14278;50.784;4.630;2023-07-29T03:40:41;18.80;99.90
26655;DHT22;14278;50.784;4.630;2023-07-29T03:43:07;18.70;99.90
26655;DHT22;14278;50.784;4.630;2023-07-29T03:45:34;18.60;99.90
26655;DHT22;14278;50.784;4.630;2023-07-29T03:48:01;19.00;99.90
26655;DHT22;14278;50.784;4.630;2023-07-29T03:50:28;19.20;99.90
26655;DHT22;14278;50.784;4.630;2023-07-29T03:52:55;19.00;99.90
26655;DHT22;14278;50.784;4.630;2023-07-29T03:55:20;18.90;99.90
26655;DHT22;14278;50.784;4.630;2023-07-29T03:57:47;18.90;99.90
26655;DHT22;14278;50.784;4.630;2023-07-29T04:00:13;18.90;99.90
26655;DHT22;14278;50.784;4.630;2023-07-29T04:02:40;19.00;99.90
26655;DHT22;14278;50.784;4.630;2023-07-29T04:05:06;19.10;99.90
26655;DHT22;14278;50.784;4.630;2023-07-29T04:07:36;19.20;99.90
26655;DHT22;14278;50.784;4.630;2023-07-29T04:10:03;19.10;99.90
26655;DHT22;14278;50.784;4.630;2023-07-29T04:12:28;19.40;99.90
26655;DHT22;14278;50.784;4.630;2023-07-29T04:14:55;19.20;99.90
26655;DHT22;14278;50.784;4.630;2023-07-29T04:17:21;19.10;99.90
26655;DHT22;14278;50.784;4.630;2023-07-29T04:19:46;19.10;99.90
26655;DHT22;14278;50.784;4.630;2023-07-29T04:22:13;18.90;99.90
26655;DHT22;14278;50.784;4.630;2023-07-29T04:24:39;19.00;99.90
26655;DHT22;14278;50.784;4.630;2023-07-29T04:27:06;18.90;99.90
26655;DHT22;14278;50.784;4.630;2023-07-29T04:29:31;19.20;99.90
26655;DHT22;14278;50.784;4.630;2023-07-29T04:31:57;19.30;99.90
26655;DHT22;14278;50.784;4.630;2023-07-29T04:34:23;19.20;99.90
26655;DHT22;14278;50.784;4.630;2023-07-29T04:36:49;19.30;99.90
26655;DHT22;14278;50.784;4.630;2023-07-29T04:39:15;19.30;99.90
26655;DHT22;14278;50.784;4.630;2023-07-29T04:41:41;19.30;99.90
26655;DHT22;14278;50.784;4.630;2023-07-29T04:44:07;19.20;99.90
26655;DHT22;14278;50.784;4.630;2023-07-29T04:46:33;19.10;99.90
26655;DHT22;14278;50.784;4.630;2023-07-29T04:48:59;19.10;99.90
26655;DHT22;14278;50.784;4.630;2023-07-29T04:51:26;19.20;99.90
26655;DHT22;14278;50.784;4.630;2023-07-29T04:53:51;19.50;99.90
26655;DHT22;14278;50.784;4.630;2023-07-29T04:56:17;19.50;99.90
26655;DHT22;14278;50.784;4.630;2023-07-29T04:58:43;19.30;99.90
26655;DHT22;14278;50.784;4.630;2023-07-29T05:01:09;19.40;99.90
26655;DHT22;14278;50.784;4.630;2023-07-29T05:03:35;19.30;99.90
26655;DHT22;14278;50.784;4.630;2023-07-29T05:06:02;18.90;99.90
26655;DHT22;14278;50.784;4.630;2023-07-29T05:08:29;19.20;99.90
26655;DHT22;14278;50.784;4.630;2023-07-29T05:10:55;19.40;99.90
26655;DHT22;14278;50.784;4.630;2023-07-29T05:13:21;19.40;99.90
26655;DHT22;14278;50.784;4.630;2023-07-29T05:15:48;19.60;99.90
26655;DHT22;14278;50.784;4.630;2023-07-29T05:18:15;19.70;99.90
26655;DHT22;14278;50.784;4.630;2023-07-29T05:20:41;19.70;99.90
26655;DHT22;14278;50.784;4.630;2023-07-29T05:23:08;19.70;99.90
26655;DHT22;14278;50.784;4.630;2023-07-29T05:25:34;19.90;99.90
26655;DHT22;14278;50.784;4.630;2023-07-29T05:28:03;20.10;99.90
26655;DHT22;14278;50.784;4.630;2023-07-29T05:30:30;20.10;99.90
26655;DHT22;14278;50.784;4.630;2023-07-29T05:33:00;20.10;99.90
26655;DHT22;14278;50.784;4.630;2023-07-29T05:35:26;20.40;99.90
26655;DHT22;14278;50.784;4.630;2023-07-29T05:37:52;20.40;99.90
26655;DHT22;14278;50.784;4.630;2023-07-29T05:40:19;20.40;99.90
26655;DHT22;14278;50.784;4.630;2023-07-29T05:42:45;20.40;99.90
26655;DHT22;14278;50.784;4.630;2023-07-29T05:45:11;20.40;99.90
26655;DHT22;14278;50.784;4.630;2023-07-29T05:47:38;20.20;99.90
26655;DHT22;14278;50.784;4.630;2023-07-29T05:50:04;20.10;99.90
26655;DHT22;14278;50.784;4.630;2023-07-29T05:52:31;20.30;99.90
26655;DHT22;14278;50.784;4.630;2023-07-29T05:54:57;20.70;99.90
26655;DHT22;14278;50.784;4.630;2023-07-29T05:57:23;20.90;99.90
26655;DHT22;14278;50.784;4.630;2023-07-29T05:59:49;21.00;99.90
26655;DHT22;14278;50.784;4.630;2023-07-29T06:02:15;21.30;99.90
26655;DHT22;14278;50.784;4.630;2023-07-29T06:04:41;21.70;99.90
26655;DHT22;14278;50.784;4.630;2023-07-29T06:07:07;21.80;99.90
26655;DHT22;14278;50.784;4.630;2023-07-29T06:09:33;21.90;99.90
26655;DHT22;14278;50.784;4.630;2023-07-29T06:11:59;21.90;99.90
26655;DHT22;14278;50.784;4.630;2023-07-29T06:14:25;21.80;99.90
26655;DHT22;14278;50.784;4.630;2023-07-29T06:16:52;22.00;99.90
26655;DHT22;14278;50.784;4.630;2023-07-29T06:19:19;21.70;99.90
26655;DHT22;14278;50.784;4.630;2023-07-29T06:21:45;21.50;99.90
26655;DHT22;14278;50.784;4.630;2023-07-29T06:24:12;21.70;99.90
26655;DHT22;14278;50.784;4.630;2023-07-29T06:26:38;21.80;99.90
26655;DHT22;14278;50.784;4.630;2023-07-29T06:29:04;22.10;99.90
26655;DHT22;14278;50.784;4.630;2023-07-29T06:31:30;22.30;99.90
26655;DHT22;14278;50.784;4.630;2023-07-29T06:33:58;21.90;99.90
26655;DHT22;14278;50.784;4.630;2023-07-29T06:36:24;21.90;99.90
26655;DHT22;14278;50.784;4.630;2023-07-29T06:38:50;22.30;99.90
26655;DHT22;14278;50.784;4.630;2023-07-29T06:41:16;22.40;99.90
26655;DHT22;14278;50.784;4.630;2023-07-29T06:43:42;22.90;99.90
26655;DHT22;14278;50.784;4.630;2023-07-29T06:46:08;23.20;99.90
26655;DHT22;14278;50.784;4.630;2023-07-29T06:48:34;23.10;99.90
26655;DHT22;14278;50.784;4.630;2023-07-29T06:51:00;23.00;99.90
26655;DHT22;14278;50.784;4.630;2023-07-29T06:53:27;22.70;99.90
26655;DHT22;14278;50.784;4.630;2023-07-29T06:55:53;22.70;99.90
26655;DHT22;14278;50.784;4.630;2023-07-29T06:58:19;22.40;99.90
26655;DHT22;14278;50.784;4.630;2023-07-29T07:00:46;22.20;99.90
26655;DHT22;14278;50.784;4.630;2023-07-29T07:03:11;22.30;99.90
26655;DHT22;14278;50.784;4.630;2023-07-29T07:05:38;22.40;99.90
26655;DHT22;14278;50.784;4.630;2023-07-29T07:08:03;22.30;99.90
26655;DHT22;14278;50.784;4.630;2023-07-29T07:10:29;22.50;99.90
26655;DHT22;14278;50.784;4.630;2023-07-29T07:12:55;22.80;99.90
26655;DHT22;14278;50.784;4.630;2023-07-29T07:15:21;22.50;99.90
26655;DHT22;14278;50.784;4.630;2023-07-29T07:17:48;22.50;99.90
26655;DHT22;14278;50.784;4.630;2023-07-29T07:20:13;22.80;99.90
26655;DHT22;14278;50.784;4.630;2023-07-29T07:22:39;22.80;99.90
26655;DHT22;14278;50.784;4.630;2023-07-29T07:25:05;22.80;99.90
26655;DHT22;14278;50.784;4.630;2023-07-29T07:27:31;22.90;99.90
26655;DHT22;14278;50.784;4.630;2023-07-29T07:29:58;23.40;99.90
26655;DHT22;14278;50.784;4.630;2023-07-29T07:32:23;23.30;99.90
26655;DHT22;14278;50.784;4.630;2023-07-29T07:34:49;23.30;99.90
26655;DHT22;14278;50.784;4.630;2023-07-29T07:37:15;23.30;99.90
26655;DHT22;14278;50.784;4.630;2023-07-29T07:39:41;23.50;99.90
26655;DHT22;14278;50.784;4.630;2023-07-29T07:42:07;23.60;99.90
26655;DHT22;14278;50.784;4.630;2023-07-29T07:44:33;23.30;99.90
26655;DHT22;14278;50.784;4.630;2023-07-29T07:46:59;23.40;99.90
26655;DHT22;14278;50.784;4.630;2023-07-29T07:49:25;23.10;99.90
26655;DHT22;14278;50.784;4.630;2023-07-29T07:51:51;23.30;99.90
26655;DHT22;14278;50.784;4.630;2023-07-29T07:54:17;23.20;99.90
26655;DHT22;14278;50.784;4.630;2023-07-29T07:56:43;23.30;99.90
26655;DHT22;14278;50.784;4.630;2023-07-29T07:59:09;23.30;99.90
26655;DHT22;14278;50.784;4.630;2023-07-29T08:01:35;23.50;99.90
26655;DHT22;14278;50.784;4.630;2023-07-29T08:04:02;23.30;99.90
26655;DHT22;14278;50.784;4.630;2023-07-29T08:06:29;23.40;99.90
26655;DHT22;14278;50.784;4.630;2023-07-29T08:08:55;23.40;99.90
26655;DHT22;14278;50.784;4.630;2023-07-29T08:11:21;23.30;99.90
26655;DHT22;14278;50.784;4.630;2023-07-29T08:13:47;23.60;99.90
26655;DHT22;14278;50.784;4.630;2023-07-29T08:16:14;23.90;99.90
26655;DHT22;14278;50.784;4.630;2023-07-29T08:18:40;24.90;99.90
26655;DHT22;14278;50.784;4.630;2023-07-29T08:21:06;26.20;99.90
26655;DHT22;14278;50.784;4.630;2023-07-29T08:23:36;26.50;99.90
26655;DHT22;14278;50.784;4.630;2023-07-29T08:26:04;26.30;99.90
26655;DHT22;14278;50.784;4.630;2023-07-29T08:28:37;27.60;99.90
26655;DHT22;14278;50.784;4.630;2023-07-29T08:31:04;29.40;99.90
26655;DHT22;14278;50.784;4.630;2023-07-29T08:33:31;31.00;99.90
26655;DHT22;14278;50.784;4.630;2023-07-29T08:35:59;32.00;99.90
26655;DHT22;14278;50.784;4.630;2023-07-29T08:38:25;30.50;99.90
26655;DHT22;14278;50.784;4.630;2023-07-29T08:41:03;29.00;99.90
26655;DHT22;14278;50.784;4.630;2023-07-29T08:43:32;28.00;99.90
26655;DHT22;14278;50.784;4.630;2023-07-29T08:45:59;27.60;99.90
26655;DHT22;14278;50.784;4.630;2023-07-29T08:48:32;26.50;99.90
26655;DHT22;14278;50.784;4.630;2023-07-29T08:51:03;26.20;99.90
26655;DHT22;14278;50.784;4.630;2023-07-29T08:53:30;25.70;99.90
26655;DHT22;14278;50.784;4.630;2023-07-29T08:55:57;26.00;99.90
26655;DHT22;14278;50.784;4.630;2023-07-29T08:58:23;27.10;99.90
26655;DHT22;14278;50.784;4.630;2023-07-29T09:00:50;27.40;99.90
26655;DHT22;14278;50.784;4.630;2023-07-29T09:03:16;27.10;99.90
26655;DHT22;14278;50.784;4.630;2023-07-29T09:05:42;26.00;99.90
26655;DHT22;14278;50.784;4.630;2023-07-29T09:08:09;25.80;99.90
26655;DHT22;14278;50.784;4.630;2023-07-29T09:10:36;25.20;99.90
26655;DHT22;14278;50.784;4.630;2023-07-29T09:13:05;25.60;99.90
26655;DHT22;14278;50.784;4.630;2023-07-29T09:15:46;25.60;99.90
26655;DHT22;14278;50.784;4.630;2023-07-29T09:18:16;26.00;99.90
26655;DHT22;14278;50.784;4.630;2023-07-29T09:20:43;26.60;99.90
26655;DHT22;14278;50.784;4.630;2023-07-29T09:23:10;26.70;99.90
26655;DHT22;14278;50.784;4.630;2023-07-29T09:25:37;27.50;99.90
26655;DHT22;14278;50.784;4.630;2023-07-29T09:28:11;28.00;99.90
26655;DHT22;14278;50.784;4.630;2023-07-29T09:30:41;29.10;99.90
26655;DHT22;14278;50.784;4.630;2023-07-29T09:33:08;29.10;99.90
26655;DHT22;14278;50.784;4.630;2023-07-29T09:35:36;30.20;99.90
26655;DHT22;14278;50.784;4.630;2023-07-29T09:38:06;29.90;99.90
26655;DHT22;14278;50.784;4.630;2023-07-29T09:40:39;28.90;99.90
26655;DHT22;14278;50.784;4.630;2023-07-29T09:43:07;28.70;99.90
26655;DHT22;14278;50.784;4.630;2023-07-29T09:45:34;28.10;99.90
26655;DHT22;14278;50.784;4.630;2023-07-29T09:48:01;27.80;99.90
26655;DHT22;14278;50.784;4.630;2023-07-29T09:50:28;27.60;99.90
26655;DHT22;14278;50.784;4.630;2023-07-29T09:52:55;27.60;99.90
26655;DHT22;14278;50.784;4.630;2023-07-29T09:55:24;27.60;99.90
26655;DHT22;14278;50.784;4.630;2023-07-29T09:57:58;28.00;99.90
26655;DHT22;14278;50.784;4.630;2023-07-29T10:00:28;28.10;99.90
26655;DHT22;14278;50.784;4.630;2023-07-29T10:02:54;29.10;99.90
26655;DHT22;14278;50.784;4.630;2023-07-29T10:05:22;29.70;99.90
26655;DHT22;14278;50.784;4.630;2023-07-29T10:07:49;29.30;99.90
26655;DHT22;14278;50.784;4.630;2023-07-29T10:10:16;28.40;99.90
26655;DHT22;14278;50.784;4.630;2023-07-29T10:12:43;27.30;99.90
26655;DHT22;14278;50.784;4.630;2023-07-29T10:15:09;27.00;99.90
26655;DHT22;14278;50.784;4.630;2023-07-29T10:17:39;26.00;99.90
26655;DHT22;14278;50.784;4.630;2023-07-29T10:20:07;25.70;99.90
26655;DHT22;14278;50.784;4.630;2023-07-29T10:22:38;25.30;99.90
26655;DHT22;14278;50.784;4.630;2023-07-29T10:25:08;25.30;99.90
26655;DHT22;14278;50.784;4.630;2023-07-29T10:30:18;24.60;99.90
26655;DHT22;14278;50.784;4.630;2023-07-29T10:32:45;24.30;99.90
26655;DHT22;14278;50.784;4.630;2023-07-29T10:35:13;24.20;99.90
26655;DHT22;14278;50.784;4.630;2023-07-29T10:37:39;23.80;99.90
26655;DHT22;14278;50.784;4.630;2023-07-29T10:40:10;23.80;99.90
26655;DHT22;14278;50.784;4.630;2023-07-29T10:42:59;23.30;99.90
26655;DHT22;14278;50.784;4.630;2023-07-29T10:45:26;23.70;99.90
26655;DHT22;14278;50.784;4.630;2023-07-29T10:47:53;23.90;99.90
26655;DHT22;14278;50.784;4.630;2023-07-29T10:50:20;23.90;99.90
26655;DHT22;14278;50.784;4.630;2023-07-29T10:52:53;23.90;99.90
26655;DHT22;14278;50.784;4.630;2023-07-29T10:55:28;23.60;99.90
26655;DHT22;14278;50.784;4.630;2023-07-29T10:58:05;23.40;99.90
26655;DHT22;14278;50.784;4.630;2023-07-29T11:00:32;23.00;99.90
26655;DHT22;14278;50.784;4.630;2023-07-29T11:03:07;23.20;99.90
26655;DHT22;14278;50.784;4.630;2023-07-29T11:05:44;23.70;99.90
26655;DHT22;14278;50.784;4.630;2023-07-29T11:08:22;24.30;99.90
26655;DHT22;14278;50.784;4.630;2023-07-29T11:11:08;24.90;99.90
26655;DHT22;14278;50.784;4.630;2023-07-29T11:13:36;25.30;99.90
26655;DHT22;14278;50.784;4.630;2023-07-29T11:16:02;25.40;99.90
26655;DHT22;14278;50.784;4.630;2023-07-29T11:18:36;25.60;99.90
26655;DHT22;14278;50.784;4.630;2023-07-29T11:21:03;25.60;99.90
26655;DHT22;14278;50.784;4.630;2023-07-29T11:23:31;25.90;99.90
26655;DHT22;14278;50.784;4.630;2023-07-29T11:25:58;25.90;99.90
26655;DHT22;14278;50.784;4.630;2023-07-29T11:28:25;26.00;99.90
26655;DHT22;14278;50.784;4.630;2023-07-29T11:30:51;25.70;99.90
26655;DHT22;14278;50.784;4.630;2023-07-29T11:33:21;25.40;99.90
26655;DHT22;14278;50.784;4.630;2023-07-29T11:35:47;25.80;99.90
26655;DHT22;14278;50.784;4.630;2023-07-29T11:38:18;25.50;99.90
26655;DHT22;14278;50.784;4.630;2023-07-29T11:40:58;25.00;99.90
26655;DHT22;14278;50.784;4.630;2023-07-29T11:43:24;24.70;99.90
26655;DHT22;14278;50.784;4.630;2023-07-29T11:45:51;24.40;99.90
26655;DHT22;14278;50.784;4.630;2023-07-29T11:48:17;24.50;99.90
26655;DHT22;14278;50.784;4.630;2023-07-29T11:50:45;24.30;99.90
26655;DHT22;14278;50.784;4.630;2023-07-29T11:53:11;24.00;99.90
26655;DHT22;14278;50.784;4.630;2023-07-29T11:55:38;23.90;99.90
26655;DHT22;14278;50.784;4.630;2023-07-29T11:58:04;24.60;99.90
26655;DHT22;14278;50.784;4.630;2023-07-29T12:00:30;25.70;99.90
26655;DHT22;14278;50.784;4.630;2023-07-29T12:02:57;27.00;99.90
26655;DHT22;14278;50.784;4.630;2023-07-29T12:05:23;28.00;99.90
26655;DHT22;14278;50.784;4.630;2023-07-29T12:07:50;28.10;99.90
26655;DHT22;14278;50.784;4.630;2023-07-29T12:10:17;28.10;99.90
26655;DHT22;14278;50.784;4.630;2023-07-29T12:12:47;27.90;99.90
26655;DHT22;14278;50.784;4.630;2023-07-29T12:15:23;27.50;99.90
26655;DHT22;14278;50.784;4.630;2023-07-29T12:17:48;26.90;99.90
26655;DHT22;14278;50.784;4.630;2023-07-29T12:20:15;26.30;99.90
26655;DHT22;14278;50.784;4.630;2023-07-29T12:22:40;26.20;99.90
26655;DHT22;14278;50.784;4.630;2023-07-29T12:25:06;25.90;99.90
26655;DHT22;14278;50.784;4.630;2023-07-29T12:27:34;26.20;99.90
26655;DHT22;14278;50.784;4.630;2023-07-29T12:30:01;26.20;99.90
26655;DHT22;14278;50.784;4.630;2023-07-29T12:32:29;25.90;99.90
26655;DHT22;14278;50.784;4.630;2023-07-29T12:34:55;25.80;99.90
26655;DHT22;14278;50.784;4.630;2023-07-29T12:37:31;25.30;99.90
26655;DHT22;14278;50.784;4.630;2023-07-29T12:39:57;24.80;99.90
26655;DHT22;14278;50.784;4.630;2023-07-29T12:42:23;24.80;99.90
26655;DHT22;14278;50.784;4.630;2023-07-29T12:44:49;24.50;99.90
26655;DHT22;14278;50.784;4.630;2023-07-29T12:47:15;24.30;99.90
26655;DHT22;14278;50.784;4.630;2023-07-29T12:49:41;24.10;99.90
26655;DHT22;14278;50.784;4.630;2023-07-29T12:52:07;23.40;99.90
26655;DHT22;14278;50.784;4.630;2023-07-29T12:54:33;23.80;99.90
26655;DHT22;14278;50.784;4.630;2023-07-29T12:56:59;23.70;99.90
26655;DHT22;14278;50.784;4.630;2023-07-29T12:59:25;23.60;99.90
26655;DHT22;14278;50.784;4.630;2023-07-29T13:01:50;23.60;99.90
26655;DHT22;14278;50.784;4.630;2023-07-29T13:04:17;23.90;99.90
26655;DHT22;14278;50.784;4.630;2023-07-29T13:06:43;24.00;99.90
26655;DHT22;14278;50.784;4.630;2023-07-29T13:09:09;24.00;99.90
26655;DHT22;14278;50.784;4.630;2023-07-29T13:11:35;24.10;99.90
26655;DHT22;14278;50.784;4.630;2023-07-29T13:14:00;24.50;99.90
26655;DHT22;14278;50.784;4.630;2023-07-29T13:16:31;24.80;99.90
26655;DHT22;14278;50.784;4.630;2023-07-29T13:18:57;25.30;99.90
26655;DHT22;14278;50.784;4.630;2023-07-29T13:21:23;25.80;99.90
26655;DHT22;14278;50.784;4.630;2023-07-29T13:23:49;26.00;99.90
26655;DHT22;14278;50.784;4.630;2023-07-29T13:26:15;26.00;99.90
26655;DHT22;14278;50.784;4.630;2023-07-29T13:28:41;25.60;99.90
26655;DHT22;14278;50.784;4.630;2023-07-29T13:31:07;25.60;99.90
26655;DHT22;14278;50.784;4.630;2023-07-29T13:33:33;25.50;99.90
26655;DHT22;14278;50.784;4.630;2023-07-29T13:36:00;25.20;99.90
26655;DHT22;14278;50.784;4.630;2023-07-29T13:38:27;24.80;99.90
26655;DHT22;14278;50.784;4.630;2023-07-29T13:40:54;24.80;99.90
26655;DHT22;14278;50.784;4.630;2023-07-29T13:43:20;24.80;99.90
26655;DHT22;14278;50.784;4.630;2023-07-29T13:45:46;24.90;99.90
26655;DHT22;14278;50.784;4.630;2023-07-29T13:48:14;25.10;99.90
26655;DHT22;14278;50.784;4.630;2023-07-29T13:50:40;25.20;99.90
26655;DHT22;14278;50.784;4.630;2023-07-29T13:53:06;25.60;99.90
26655;DHT22;14278;50.784;4.630;2023-07-29T13:55:32;25.90;99.90
26655;DHT22;14278;50.784;4.630;2023-07-29T13:57:58;26.00;99.90
26655;DHT22;14278;50.784;4.630;2023-07-29T14:00:24;25.60;99.90
26655;DHT22;14278;50.784;4.630;2023-07-29T14:02:50;25.60;99.90
26655;DHT22;14278;50.784;4.630;2023-07-29T14:05:16;25.50;99.90
26655;DHT22;14278;50.784;4.630;2023-07-29T14:07:42;25.70;99.90
26655;DHT22;14278;50.784;4.630;2023-07-29T14:10:08;25.70;99.90
26655;DHT22;14278;50.784;4.630;2023-07-29T14:12:34;25.90;99.90
26655;DHT22;14278;50.784;4.630;2023-07-29T14:15:00;25.80;99.90
26655;DHT22;14278;50.784;4.630;2023-07-29T14:17:26;26.00;99.90
26655;DHT22;14278;50.784;4.630;2023-07-29T14:19:52;26.10;99.90
26655;DHT22;14278;50.784;4.630;2023-07-29T14:22:18;26.00;99.90
26655;DHT22;14278;50.784;4.630;2023-07-29T14:24:44;26.40;99.90
26655;DHT22;14278;50.784;4.630;2023-07-29T14:27:10;25.90;99.90
26655;DHT22;14278;50.784;4.630;2023-07-29T14:29:36;25.90;99.90
26655;DHT22;14278;50.784;4.630;2023-07-29T14:32:02;25.50;99.90
26655;DHT22;14278;50.784;4.630;2023-07-29T14:34:28;25.20;99.90
26655;DHT22;14278;50.784;4.630;2023-07-29T14:36:54;25.20;99.90
26655;DHT22;14278;50.784;4.630;2023-07-29T14:39:20;25.40;99.90
26655;DHT22;14278;50.784;4.630;2023-07-29T14:41:46;25.50;99.90
26655;DHT22;14278;50.784;4.630;2023-07-29T14:44:12;25.40;99.90
26655;DHT22;14278;50.784;4.630;2023-07-29T14:46:39;25.30;99.90
26655;DHT22;14278;50.784;4.630;2023-07-29T14:49:04;25.40;99.90
26655;DHT22;14278;50.784;4.630;2023-07-29T14:51:30;25.70;99.90
26655;DHT22;14278;50.784;4.630;2023-07-29T14:53:57;25.90;99.90
26655;DHT22;14278;50.784;4.630;2023-07-29T14:56:22;25.80;99.90
26655;DHT22;14278;50.784;4.630;2023-07-29T14:58:49;25.80;99.90
26655;DHT22;14278;50.784;4.630;2023-07-29T15:01:16;25.90;99.90
26655;DHT22;14278;50.784;4.630;2023-07-29T15:03:41;25.80;99.90
26655;DHT22;14278;50.784;4.630;2023-07-29T15:06:08;25.90;99.90
26655;DHT22;14278;50.784;4.630;2023-07-29T15:08:33;25.80;99.90
26655;DHT22;14278;50.784;4.630;2023-07-29T15:11:00;25.80;99.90
26655;DHT22;14278;50.784;4.630;2023-07-29T15:13:25;25.60;99.90
26655;DHT22;14278;50.784;4.630;2023-07-29T15:15:51;24.20;99.90
26655;DHT22;14278;50.784;4.630;2023-07-29T15:18:17;23.70;99.90
26655;DHT22;14278;50.784;4.630;2023-07-29T15:20:44;23.20;99.90
26655;DHT22;14278;50.784;4.630;2023-07-29T15:23:10;23.30;99.90
26655;DHT22;14278;50.784;4.630;2023-07-29T15:25:36;23.00;99.90
26655;DHT22;14278;50.784;4.630;2023-07-29T15:28:04;23.00;99.90
26655;DHT22;14278;50.784;4.630;2023-07-29T15:30:31;23.00;99.90
26655;DHT22;14278;50.784;4.630;2023-07-29T15:32:56;23.00;99.90
26655;DHT22;14278;50.784;4.630;2023-07-29T15:35:23;22.90;99.90
26655;DHT22;14278;50.784;4.630;2023-07-29T15:37:48;23.00;99.90